sensor_id;sensor_type;location;lat;lon;timestamp;temperature;humidity
14934;DHT22;7560;51.364;12.384;2022-07-29T00:04:45;18.40;98.10
14934;DHT22;7560;51.364;12.384;2022-07-29T00:09:47;18.40;97.90
14934;DHT22;7560;51.364;12.384;2022-07-29T00:14:54;18.40;97.90
14934;DHT22;7560;51.364;12.384;2022-07-29T00:19:56;18.30;98.00
14934;DHT22;7560;51.364;12.384;2022-07-29T00:24:58;18.30;98.10
14934;DHT22;7560;51.364;12.384;2022-07-29T00:30:00;18.30;98.20
14934;DHT22;7560;51.364;12.384;2022-07-29T00:35:02;18.30;98.30
14934;DHT22;7560;51.364;12.384;2022-07-29T00:40:23;18.20;98.40
14934;DHT22;7560;51.364;12.384;2022-07-29T00:45:24;18.20;98.40
14934;DHT22;7560;51.364;12.384;2022-07-29T00:50:27;18.20;98.50
14934;DHT22;7560;51.364;12.384;2022-07-29T00:55:29;18.10;98.60
14934;DHT22;7560;51.364;12.384;2022-07-29T01:00:31;18.10;98.70
14934;DHT22;7560;51.364;12.384;2022-07-29T01:05:34;18.00;98.90
14934;DHT22;7560;51.364;12.384;2022-07-29T01:10:52;18.00;98.90
14934;DHT22;7560;51.364;12.384;2022-07-29T01:15:59;18.00;99.10
14934;DHT22;7560;51.364;12.384;2022-07-29T01:21:21;17.90;99.10
14934;DHT22;7560;51.364;12.384;2022-07-29T01:26:33;18.00;99.20
14934;DHT22;7560;51.364;12.384;2022-07-29T01:32:03;17.90;99.30
14934;DHT22;7560;51.364;12.384;2022-07-29T01:37:19;17.90;99.50
14934;DHT22;7560;51.364;12.384;2022-07-29T01:47:54;17.90;99.50
14934;DHT22;7560;51.364;12.384;2022-07-29T01:53:00;17.90;99.50
14934;DHT22;7560;51.364;12.384;2022-07-29T01:58:04;17.80;99.70
14934;DHT22;7560;51.364;12.384;2022-07-29T02:03:11;17.80;99.80
14934;DHT22;7560;51.364;12.384;2022-07-29T02:08:13;17.90;99.70
14934;DHT22;7560;51.364;12.384;2022-07-29T02:13:18;17.80;99.80
14934;DHT22;7560;51.364;12.384;2022-07-29T02:18:23;17.80;99.90
14934;DHT22;7560;51.364;12.384;2022-07-29T02:23:26;17.80;99.90
14934;DHT22;7560;51.364;12.384;2022-07-29T02:28:29;17.80;99.90
14934;DHT22;7560;51.364;12.384;2022-07-29T02:33:32;17.70;99.90
14934;DHT22;7560;51.364;12.384;2022-07-29T02:38:35;17.60;99.90
14934;DHT22;7560;51.364;12.384;2022-07-29T02:43:56;17.60;99.90
14934;DHT22;7560;51.364;12.384;2022-07-29T02:54:46;17.70;99.90
14934;DHT22;7560;51.364;12.384;2022-07-29T02:59:51;17.60;99.90
14934;DHT22;7560;51.364;12.384;2022-07-29T03:04:55;17.60;99.90
14934;DHT22;7560;51.364;12.384;2022-07-29T03:09:59;17.70;99.90
14934;DHT22;7560;51.364;12.384;2022-07-29T03:15:01;17.60;99.90
14934;DHT22;7560;51.364;12.384;2022-07-29T03:20:04;17.60;99.90
14934;DHT22;7560;51.364;12.384;2022-07-29T03:25:12;17.60;99.90
14934;DHT22;7560;51.364;12.384;2022-07-29T03:30:15;17.50;99.90
14934;DHT22;7560;51.364;12.384;2022-07-29T03:35:22;17.50;99.90
14934;DHT22;7560;51.364;12.384;2022-07-29T03:40:30;17.50;99.90
14934;DHT22;7560;51.364;12.384;2022-07-29T03:45:34;17.40;99.90
14934;DHT22;7560;51.364;12.384;2022-07-29T03:50:36;17.30;99.90
14934;DHT22;7560;51.364;12.384;2022-07-29T03:55:43;17.40;99.90
14934;DHT22;7560;51.364;12.384;2022-07-29T04:00:46;17.40;99.90
14934;DHT22;7560;51.364;12.384;2022-07-29T04:11:02;17.50;99.90
14934;DHT22;7560;51.364;12.384;2022-07-29T04:16:04;17.60;99.90
14934;DHT22;7560;51.364;12.384;2022-07-29T04:21:06;17.60;99.90
14934;DHT22;7560;51.364;12.384;2022-07-29T04:26:08;17.60;99.90
14934;DHT22;7560;51.364;12.384;2022-07-29T04:31:12;17.60;99.90
14934;DHT22;7560;51.364;12.384;2022-07-29T04:36:14;17.70;99.90
14934;DHT22;7560;51.364;12.384;2022-07-29T04:41:30;17.70;99.90
14934;DHT22;7560;51.364;12.384;2022-07-29T04:46:35;17.60;99.90
14934;DHT22;7560;51.364;12.384;2022-07-29T04:51:37;17.70;99.90
14934;DHT22;7560;51.364;12.384;2022-07-29T04:56:39;17.80;99.90
14934;DHT22;7560;51.364;12.384;2022-07-29T05:01:41;17.70;99.90
14934;DHT22;7560;51.364;12.384;2022-07-29T05:06:43;17.80;99.90
14934;DHT22;7560;51.364;12.384;2022-07-29T05:11:45;17.80;99.90
14934;DHT22;7560;51.364;12.384;2022-07-29T05:16:46;17.90;99.90
14934;DHT22;7560;51.364;12.384;2022-07-29T05:21:49;17.90;99.90
14934;DHT22;7560;51.364;12.384;2022-07-29T05:26:51;18.10;99.90
14934;DHT22;7560;51.364;12.384;2022-07-29T05:31:53;18.10;99.90
14934;DHT22;7560;51.364;12.384;2022-07-29T05:36:55;18.20;99.90
14934;DHT22;7560;51.364;12.384;2022-07-29T05:41:57;18.20;99.90
14934;DHT22;7560;51.364;12.384;2022-07-29T05:46:58;18.40;99.90
14934;DHT22;7560;51.364;12.384;2022-07-29T05:52:00;18.60;99.70
14934;DHT22;7560;51.364;12.384;2022-07-29T05:57:03;18.40;99.60
14934;DHT22;7560;51.364;12.384;2022-07-29T06:02:05;18.50;99.90
14934;DHT22;7560;51.364;12.384;2022-07-29T06:07:07;18.50;99.70
14934;DHT22;7560;51.364;12.384;2022-07-29T06:12:09;18.70;99.70
14934;DHT22;7560;51.364;12.384;2022-07-29T06:17:10;18.80;99.50
14934;DHT22;7560;51.364;12.384;2022-07-29T06:22:15;18.90;99.40
14934;DHT22;7560;51.364;12.384;2022-07-29T06:27:18;18.90;99.70
14934;DHT22;7560;51.364;12.384;2022-07-29T06:32:19;19.10;99.30
14934;DHT22;7560;51.364;12.384;2022-07-29T06:37:27;19.30;99.00
14934;DHT22;7560;51.364;12.384;2022-07-29T06:42:32;19.50;98.80
14934;DHT22;7560;51.364;12.384;2022-07-29T06:47:34;19.40;99.10
14934;DHT22;7560;51.364;12.384;2022-07-29T06:52:36;19.60;98.80
14934;DHT22;7560;51.364;12.384;2022-07-29T06:57:38;19.90;98.70
14934;DHT22;7560;51.364;12.384;2022-07-29T07:02:40;20.40;97.90
14934;DHT22;7560;51.364;12.384;2022-07-29T07:07:42;20.50;97.70
14934;DHT22;7560;51.364;12.384;2022-07-29T07:12:43;20.80;97.10
14934;DHT22;7560;51.364;12.384;2022-07-29T07:17:45;20.60;97.40
14934;DHT22;7560;51.364;12.384;2022-07-29T07:22:56;20.50;97.40
14934;DHT22;7560;51.364;12.384;2022-07-29T07:28:22;20.70;97.40
14934;DHT22;7560;51.364;12.384;2022-07-29T07:33:25;20.70;97.60
14934;DHT22;7560;51.364;12.384;2022-07-29T07:38:27;20.70;97.70
14934;DHT22;7560;51.364;12.384;2022-07-29T07:43:29;20.60;97.80
14934;DHT22;7560;51.364;12.384;2022-07-29T07:48:30;20.60;97.90
14934;DHT22;7560;51.364;12.384;2022-07-29T07:53:32;20.50;97.90
14934;DHT22;7560;51.364;12.384;2022-07-29T07:58:34;20.60;97.90
14934;DHT22;7560;51.364;12.384;2022-07-29T08:03:37;20.80;97.60
14934;DHT22;7560;51.364;12.384;2022-07-29T08:08:39;20.90;97.60
14934;DHT22;7560;51.364;12.384;2022-07-29T08:13:40;21.10;97.70
14934;DHT22;7560;51.364;12.384;2022-07-29T08:18:44;21.30;97.40
14934;DHT22;7560;51.364;12.384;2022-07-29T08:23:46;21.50;97.00
14934;DHT22;7560;51.364;12.384;2022-07-29T08:29:00;21.50;97.30
14934;DHT22;7560;51.364;12.384;2022-07-29T08:34:03;21.90;96.80
14934;DHT22;7560;51.364;12.384;2022-07-29T08:39:05;22.00;97.00
14934;DHT22;7560;51.364;12.384;2022-07-29T08:44:08;22.30;96.60
14934;DHT22;7560;51.364;12.384;2022-07-29T08:49:11;22.50;96.60
14934;DHT22;7560;51.364;12.384;2022-07-29T08:54:17;22.60;96.30
14934;DHT22;7560;51.364;12.384;2022-07-29T08:59:20;22.90;95.90
14934;DHT22;7560;51.364;12.384;2022-07-29T09:04:24;23.00;95.70
14934;DHT22;7560;51.364;12.384;2022-07-29T09:09:28;23.30;95.60
14934;DHT22;7560;51.364;12.384;2022-07-29T09:14:30;23.60;95.30
14934;DHT22;7560;51.364;12.384;2022-07-29T09:19:34;23.90;94.90
14934;DHT22;7560;51.364;12.384;2022-07-29T09:24:45;24.10;94.60
14934;DHT22;7560;51.364;12.384;2022-07-29T09:30:02;24.10;94.30
14934;DHT22;7560;51.364;12.384;2022-07-29T09:35:20;24.30;93.90
14934;DHT22;7560;51.364;12.384;2022-07-29T09:40:24;24.20;93.80
14934;DHT22;7560;51.364;12.384;2022-07-29T09:45:33;24.30;93.80
14934;DHT22;7560;51.364;12.384;2022-07-29T09:50:37;24.40;93.60
14934;DHT22;7560;51.364;12.384;2022-07-29T09:55:49;24.60;93.40
14934;DHT22;7560;51.364;12.384;2022-07-29T10:00:53;24.50;93.30
14934;DHT22;7560;51.364;12.384;2022-07-29T10:11:12;24.60;93.10
14934;DHT22;7560;51.364;12.384;2022-07-29T10:16:15;24.70;93.00
14934;DHT22;7560;51.364;12.384;2022-07-29T10:21:18;24.90;92.70
14934;DHT22;7560;51.364;12.384;2022-07-29T10:26:36;25.30;92.10
14934;DHT22;7560;51.364;12.384;2022-07-29T10:37:23;25.30;91.90
14934;DHT22;7560;51.364;12.384;2022-07-29T10:42:28;25.30;91.50
14934;DHT22;7560;51.364;12.384;2022-07-29T10:47:35;25.70;90.60
14934;DHT22;7560;51.364;12.384;2022-07-29T10:58:10;25.60;89.80
14934;DHT22;7560;51.364;12.384;2022-07-29T11:03:45;25.80;89.20
14934;DHT22;7560;51.364;12.384;2022-07-29T11:09:18;25.90;87.90
14934;DHT22;7560;51.364;12.384;2022-07-29T11:25:33;26.50;87.50
14934;DHT22;7560;51.364;12.384;2022-07-29T11:30:53;26.30;87.20
14934;DHT22;7560;51.364;12.384;2022-07-29T11:36:10;26.00;88.20
14934;DHT22;7560;51.364;12.384;2022-07-29T11:51:53;26.70;87.30
14934;DHT22;7560;51.364;12.384;2022-07-29T11:56:57;27.00;86.30
14934;DHT22;7560;51.364;12.384;2022-07-29T12:02:00;27.00;85.00
14934;DHT22;7560;51.364;12.384;2022-07-29T12:07:32;27.00;86.30
14934;DHT22;7560;51.364;12.384;2022-07-29T12:12:37;27.50;85.60
14934;DHT22;7560;51.364;12.384;2022-07-29T12:17:40;27.20;85.90
14934;DHT22;7560;51.364;12.384;2022-07-29T12:22:42;27.30;86.00
14934;DHT22;7560;51.364;12.384;2022-07-29T12:27:46;27.80;86.30
14934;DHT22;7560;51.364;12.384;2022-07-29T12:32:48;28.00;86.50
14934;DHT22;7560;51.364;12.384;2022-07-29T12:37:50;28.10;85.70
14934;DHT22;7560;51.364;12.384;2022-07-29T12:43:13;28.10;85.60
14934;DHT22;7560;51.364;12.384;2022-07-29T12:48:17;28.00;85.50
14934;DHT22;7560;51.364;12.384;2022-07-29T12:53:19;28.00;85.50
14934;DHT22;7560;51.364;12.384;2022-07-29T13:03:52;28.70;84.80
14934;DHT22;7560;51.364;12.384;2022-07-29T13:09:00;29.00;84.10
14934;DHT22;7560;51.364;12.384;2022-07-29T13:14:02;29.40;83.60
14934;DHT22;7560;51.364;12.384;2022-07-29T13:19:12;29.70;83.50
14934;DHT22;7560;51.364;12.384;2022-07-29T13:24:13;29.60;83.30
14934;DHT22;7560;51.364;12.384;2022-07-29T13:29:20;29.60;82.90
14934;DHT22;7560;51.364;12.384;2022-07-29T13:34:23;29.90;82.80
14934;DHT22;7560;51.364;12.384;2022-07-29T13:39:25;30.00;82.60
14934;DHT22;7560;51.364;12.384;2022-07-29T13:44:27;30.50;81.60
14934;DHT22;7560;51.364;12.384;2022-07-29T13:49:29;30.50;81.30
14934;DHT22;7560;51.364;12.384;2022-07-29T13:54:31;30.80;80.50
14934;DHT22;7560;51.364;12.384;2022-07-29T13:59:33;30.70;81.40
14934;DHT22;7560;51.364;12.384;2022-07-29T14:04:36;29.80;81.20
14934;DHT22;7560;51.364;12.384;2022-07-29T14:09:40;29.40;81.30
14934;DHT22;7560;51.364;12.384;2022-07-29T14:14:42;29.40;81.80
14934;DHT22;7560;51.364;12.384;2022-07-29T14:19:47;29.50;82.40
14934;DHT22;7560;51.364;12.384;2022-07-29T14:24:49;29.70;81.10
14934;DHT22;7560;51.364;12.384;2022-07-29T14:29:51;29.40;81.60
14934;DHT22;7560;51.364;12.384;2022-07-29T14:34:53;29.50;82.80
14934;DHT22;7560;51.364;12.384;2022-07-29T14:39:55;29.50;82.00
14934;DHT22;7560;51.364;12.384;2022-07-29T14:45:00;29.20;81.90
14934;DHT22;7560;51.364;12.384;2022-07-29T14:50:03;29.20;82.60
14934;DHT22;7560;51.364;12.384;2022-07-29T14:55:05;29.10;82.80
14934;DHT22;7560;51.364;12.384;2022-07-29T15:00:20;29.10;83.10
14934;DHT22;7560;51.364;12.384;2022-07-29T15:05:22;29.30;83.40
14934;DHT22;7560;51.364;12.384;2022-07-29T15:10:24;29.30;82.80
14934;DHT22;7560;51.364;12.384;2022-07-29T15:15:28;29.20;83.90
14934;DHT22;7560;51.364;12.384;2022-07-29T15:20:30;29.30;83.20
14934;DHT22;7560;51.364;12.384;2022-07-29T15:25:32;29.30;83.50
14934;DHT22;7560;51.364;12.384;2022-07-29T15:30:37;29.60;83.90
14934;DHT22;7560;51.364;12.384;2022-07-29T15:35:51;29.40;83.60
14934;DHT22;7560;51.364;12.384;2022-07-29T15:40:53;29.70;83.90
14934;DHT22;7560;51.364;12.384;2022-07-29T15:45:54;29.90;82.80
14934;DHT22;7560;51.364;12.384;2022-07-29T15:51:15;30.10;82.50
14934;DHT22;7560;51.364;12.384;2022-07-29T15:56:17;30.00;82.80
14934;DHT22;7560;51.364;12.384;2022-07-29T16:01:19;29.60;86.40
14934;DHT22;7560;51.364;12.384;2022-07-29T16:06:21;28.20;92.20
14934;DHT22;7560;51.364;12.384;2022-07-29T16:11:22;27.40;93.80
14934;DHT22;7560;51.364;12.384;2022-07-29T16:16:25;27.30;94.10
14934;DHT22;7560;51.364;12.384;2022-07-29T16:21:27;27.40;94.30
14934;DHT22;7560;51.364;12.384;2022-07-29T16:26:28;27.20;94.60
14934;DHT22;7560;51.364;12.384;2022-07-29T16:31:30;26.60;95.60
14934;DHT22;7560;51.364;12.384;2022-07-29T16:36:32;26.50;95.90
14934;DHT22;7560;51.364;12.384;2022-07-29T16:41:34;26.40;96.20
14934;DHT22;7560;51.364;12.384;2022-07-29T16:46:36;26.60;96.20
14934;DHT22;7560;51.364;12.384;2022-07-29T16:51:41;26.80;96.10
14934;DHT22;7560;51.364;12.384;2022-07-29T16:56:43;27.00;96.00
14934;DHT22;7560;51.364;12.384;2022-07-29T17:01:45;27.10;95.80
14934;DHT22;7560;51.364;12.384;2022-07-29T17:06:47;27.50;95.50
14934;DHT22;7560;51.364;12.384;2022-07-29T17:11:50;27.80;95.00
14934;DHT22;7560;51.364;12.384;2022-07-29T17:16:57;28.00;94.70
14934;DHT22;7560;51.364;12.384;2022-07-29T17:22:04;27.90;94.60
14934;DHT22;7560;51.364;12.384;2022-07-29T17:27:19;27.70;94.90
14934;DHT22;7560;51.364;12.384;2022-07-29T17:32:20;27.50;95.10
14934;DHT22;7560;51.364;12.384;2022-07-29T17:37:22;27.30;94.80
14934;DHT22;7560;51.364;12.384;2022-07-29T17:42:24;27.20;95.00
14934;DHT22;7560;51.364;12.384;2022-07-29T17:47:26;26.90;95.10
14934;DHT22;7560;51.364;12.384;2022-07-29T17:52:27;26.80;95.30
14934;DHT22;7560;51.364;12.384;2022-07-29T17:57:29;26.70;95.00
14934;DHT22;7560;51.364;12.384;2022-07-29T18:02:31;26.40;95.70
14934;DHT22;7560;51.364;12.384;2022-07-29T18:07:33;26.10;96.30
14934;DHT22;7560;51.364;12.384;2022-07-29T18:12:35;26.00;96.50
14934;DHT22;7560;51.364;12.384;2022-07-29T18:17:37;25.80;96.60
14934;DHT22;7560;51.364;12.384;2022-07-29T18:22:58;25.60;96.80
14934;DHT22;7560;51.364;12.384;2022-07-29T18:28:00;25.50;97.00
14934;DHT22;7560;51.364;12.384;2022-07-29T18:33:03;25.40;97.10
14934;DHT22;7560;51.364;12.384;2022-07-29T18:38:22;25.30;96.70
14934;DHT22;7560;51.364;12.384;2022-07-29T18:43:24;25.30;96.80
14934;DHT22;7560;51.364;12.384;2022-07-29T18:48:26;25.10;97.30
14934;DHT22;7560;51.364;12.384;2022-07-29T18:53:27;25.00;97.40
14934;DHT22;7560;51.364;12.384;2022-07-29T18:58:29;24.90;97.70
14934;DHT22;7560;51.364;12.384;2022-07-29T19:03:33;24.70;98.20
14934;DHT22;7560;51.364;12.384;2022-07-29T19:08:35;24.70;98.40
14934;DHT22;7560;51.364;12.384;2022-07-29T19:13:37;24.70;99.10
14934;DHT22;7560;51.364;12.384;2022-07-29T19:18:39;24.70;99.20
14934;DHT22;7560;51.364;12.384;2022-07-29T19:23:41;24.70;98.60
14934;DHT22;7560;51.364;12.384;2022-07-29T19:29:03;24.40;98.50
14934;DHT22;7560;51.364;12.384;2022-07-29T19:34:05;24.20;98.40
14934;DHT22;7560;51.364;12.384;2022-07-29T19:39:07;24.20;98.30
14934;DHT22;7560;51.364;12.384;2022-07-29T19:44:09;24.10;98.20
14934;DHT22;7560;51.364;12.384;2022-07-29T19:49:12;24.10;98.20
14934;DHT22;7560;51.364;12.384;2022-07-29T19:54:14;24.00;98.20
14934;DHT22;7560;51.364;12.384;2022-07-29T19:59:18;24.00;98.20
14934;DHT22;7560;51.364;12.384;2022-07-29T20:04:25;24.00;98.10
14934;DHT22;7560;51.364;12.384;2022-07-29T20:09:26;24.00;98.10
14934;DHT22;7560;51.364;12.384;2022-07-29T20:14:28;23.90;98.20
14934;DHT22;7560;51.364;12.384;2022-07-29T20:19:30;24.00;98.40
14934;DHT22;7560;51.364;12.384;2022-07-29T20:24:33;23.90;98.40
14934;DHT22;7560;51.364;12.384;2022-07-29T20:29:36;23.90;98.40
14934;DHT22;7560;51.364;12.384;2022-07-29T20:34:38;23.90;98.40
14934;DHT22;7560;51.364;12.384;2022-07-29T20:39:42;23.90;98.60
14934;DHT22;7560;51.364;12.384;2022-07-29T20:44:43;23.90;98.80
14934;DHT22;7560;51.364;12.384;2022-07-29T20:49:46;23.80;98.80
14934;DHT22;7560;51.364;12.384;2022-07-29T20:54:48;23.80;98.90
14934;DHT22;7560;51.364;12.384;2022-07-29T20:59:50;23.80;99.20
14934;DHT22;7560;51.364;12.384;2022-07-29T21:04:52;23.80;99.50
14934;DHT22;7560;51.364;12.384;2022-07-29T21:09:54;23.80;99.40
14934;DHT22;7560;51.364;12.384;2022-07-29T21:14:56;23.70;99.90
14934;DHT22;7560;51.364;12.384;2022-07-29T21:19:58;23.60;99.90
14934;DHT22;7560;51.364;12.384;2022-07-29T21:25:00;23.50;99.90
14934;DHT22;7560;51.364;12.384;2022-07-29T21:30:02;23.40;99.90
14934;DHT22;7560;51.364;12.384;2022-07-29T21:35:04;23.10;99.90
14934;DHT22;7560;51.364;12.384;2022-07-29T21:40:22;22.80;99.90
14934;DHT22;7560;51.364;12.384;2022-07-29T21:45:24;22.70;99.90
14934;DHT22;7560;51.364;12.384;2022-07-29T21:50:26;22.50;99.90
14934;DHT22;7560;51.364;12.384;2022-07-29T21:55:28;22.20;99.90
14934;DHT22;7560;51.364;12.384;2022-07-29T22:00:33;21.80;99.90
14934;DHT22;7560;51.364;12.384;2022-07-29T22:05:35;21.50;99.90
14934;DHT22;7560;51.364;12.384;2022-07-29T22:10:36;21.20;99.90
14934;DHT22;7560;51.364;12.384;2022-07-29T22:15:38;21.10;99.90
14934;DHT22;7560;51.364;12.384;2022-07-29T22:20:48;20.90;99.90
14934;DHT22;7560;51.364;12.384;2022-07-29T22:25:50;20.70;99.90
14934;DHT22;7560;51.364;12.384;2022-07-29T22:30:52;20.60;99.90
14934;DHT22;7560;51.364;12.384;2022-07-29T22:35:53;20.50;99.90
14934;DHT22;7560;51.364;12.384;2022-07-29T22:40:55;20.40;99.90
14934;DHT22;7560;51.364;12.384;2022-07-29T22:46:02;20.30;99.90
14934;DHT22;7560;51.364;12.384;2022-07-29T22:51:04;20.20;99.90
14934;DHT22;7560;51.364;12.384;2022-07-29T22:56:05;20.30;99.90
14934;DHT22;7560;51.364;12.384;2022-07-29T23:01:07;20.10;99.90
14934;DHT22;7560;51.364;12.384;2022-07-29T23:06:09;20.20;99.90
14934;DHT22;7560;51.364;12.384;2022-07-29T23:11:11;20.20;99.90
14934;DHT22;7560;51.364;12.384;2022-07-29T23:16:13;20.20;99.90
14934;DHT22;7560;51.364;12.384;2022-07-29T23:21:27;20.10;99.90
14934;DHT22;7560;51.364;12.384;2022-07-29T23:26:29;20.00;99.90
14934;DHT22;7560;51.364;12.384;2022-07-29T23:31:32;20.00;99.90
14934;DHT22;7560;51.364;12.384;2022-07-29T23:36:42;20.00;99.90
14934;DHT22;7560;51.364;12.384;2022-07-29T23:41:44;20.00;99.90
14934;DHT22;7560;51.364;12.384;2022-07-29T23:46:45;20.00;99.90
14934;DHT22;7560;51.364;12.384;2022-07-29T23:51:47;20.10;99.90
14934;DHT22;7560;51.364;12.384;2022-07-29T23:56:49;20.10;99.90
